< < Back
Terminal Aerodrome Forecast


Current Version              Previous Versions:   1  2  3  4  5  6  7  8  9  

Terminal Aerodrome Forecast

203
FTUS42 KJAX 110532
TAFSSI
TAF
KSSI 110532Z 1106/1206 27005KT P6SM SKC
     FM111800 17008KT P6SM FEW250=



Latest METAR

411
SAUS70 KWBC 111300 RRL
MTRSSI
METAR KSSI 111253Z AUTO 25004KT 10SM CLR 02/M03 A3029 RMK AO2 SLP259
T00221033


USA.gov is the U.S. government's official web portal to all federal, state and local government web resources and services.